createdAt,value
2022-11-24T00:01:06.116Z,10.27
2022-11-24T00:03:56.507Z,10.17
2022-11-24T00:06:44.816Z,10.05
2022-11-24T00:09:33.441Z,10.04
2022-11-24T00:12:21.722Z,10.18
2022-11-24T00:15:10.768Z,10.29
2022-11-24T00:18:00.485Z,10.34
2022-11-24T00:20:53.341Z,10.36
2022-11-24T00:23:41.826Z,10.32
2022-11-24T00:26:32.032Z,10.37
2022-11-24T00:29:21.787Z,10.13
2022-11-24T00:32:10.116Z,10.19
2022-11-24T00:34:59.758Z,10.19
2022-11-24T00:37:48.134Z,10.17
2022-11-24T00:40:37.720Z,10.10
2022-11-24T00:43:26.002Z,10.01
2022-11-24T00:46:14.836Z,9.88
2022-11-24T00:49:03.361Z,9.85
2022-11-24T00:51:53.071Z,9.46
2022-11-24T00:54:41.344Z,9.46
2022-11-24T00:57:29.602Z,9.32
2022-11-24T01:00:19.096Z,9.40
2022-11-24T01:03:07.662Z,9.47
2022-11-24T01:05:55.944Z,9.52
2022-11-24T01:08:46.453Z,9.15
2022-11-24T01:11:50.734Z,9.14
2022-11-24T01:14:39.283Z,9.04
2022-11-24T01:17:28.241Z,8.92
2022-11-24T01:20:17.219Z,9.03
2022-11-24T01:23:05.497Z,9.04
2022-11-24T01:25:55.138Z,8.94
2022-11-24T01:28:47.209Z,9.02
2022-11-24T01:31:37.030Z,8.82
2022-11-24T01:34:25.541Z,8.68
2022-11-24T01:37:14.434Z,8.73
2022-11-24T01:40:02.941Z,8.73
2022-11-24T01:42:54.114Z,8.77
2022-11-24T01:45:42.767Z,8.65
2022-11-24T01:48:34.425Z,8.75
2022-11-24T01:51:26.809Z,8.63
2022-11-24T01:54:19.853Z,8.57
2022-11-24T01:57:14.459Z,8.52
2022-11-24T02:00:08.539Z,8.60
2022-11-24T02:02:58.843Z,8.59
2022-11-24T02:05:52.308Z,8.54
2022-11-24T02:08:46.146Z,8.40
2022-11-24T02:11:38.317Z,8.46
2022-11-24T02:14:27.831Z,8.49
2022-11-24T02:17:17.652Z,8.50
2022-11-24T02:20:09.497Z,8.63
2022-11-24T02:23:04.985Z,8.58
2022-11-24T02:26:03.206Z,8.46
2022-11-24T02:28:53.753Z,8.44
2022-11-24T02:31:46.439Z,8.39
2022-11-24T02:34:35.355Z,8.17
2022-11-24T02:37:23.861Z,8.08
2022-11-24T02:40:15.835Z,8.25
2022-11-24T02:43:07.138Z,8.41
2022-11-24T02:45:56.854Z,8.53
2022-11-24T02:48:45.218Z,8.62
2022-11-24T02:51:34.594Z,8.58
2022-11-24T02:54:22.962Z,8.69
2022-11-24T02:57:11.790Z,8.82
2022-11-24T03:00:00.125Z,8.81
2022-11-24T03:02:49.919Z,8.77
2022-11-24T03:05:38.357Z,8.47
2022-11-24T03:08:26.691Z,8.40
2022-11-24T03:11:14.922Z,8.52
2022-11-24T03:14:03.489Z,8.51
2022-11-24T03:16:51.793Z,8.11
2022-11-24T03:19:41.567Z,7.89
2022-11-24T03:22:29.865Z,8.01
2022-11-24T03:25:18.558Z,8.15
2022-11-24T03:28:06.936Z,8.25
2022-11-24T03:30:55.370Z,8.36
2022-11-24T03:33:44.008Z,8.31
2022-11-24T03:36:33.625Z,8.37
2022-11-24T03:39:21.898Z,8.39
2022-11-24T03:42:10.178Z,8.33
2022-11-24T03:45:01.647Z,8.31
2022-11-24T03:48:00.623Z,8.25
2022-11-24T03:50:55.465Z,8.15
2022-11-24T03:53:45.866Z,8.04
2022-11-24T03:56:34.231Z,7.98
2022-11-24T03:59:22.484Z,7.80
2022-11-24T04:02:10.928Z,7.80
2022-11-24T04:05:00.324Z,7.68
2022-11-24T04:07:48.759Z,7.66
2022-11-24T04:10:40.131Z,7.68
2022-11-24T04:13:28.343Z,7.54
2022-11-24T04:16:16.711Z,7.60
2022-11-24T04:19:05.384Z,7.70
2022-11-24T04:21:53.733Z,7.68
2022-11-24T04:24:41.999Z,7.70
2022-11-24T04:27:31.710Z,7.54
2022-11-24T04:30:20.849Z,7.58
2022-11-24T04:33:09.089Z,7.48
2022-11-24T04:35:57.449Z,7.54
2022-11-24T04:39:23.159Z,7.50
2022-11-24T04:41:54.148Z,7.39
2022-11-24T04:44:43.857Z,7.40
2022-11-24T04:47:32.141Z,7.48
2022-11-24T04:50:20.860Z,7.45
2022-11-24T04:53:10.149Z,7.41
2022-11-24T04:55:58.549Z,7.45
2022-11-24T04:58:49.341Z,7.52
2022-11-24T05:01:39.090Z,7.45
2022-11-24T05:04:27.479Z,7.43
2022-11-24T05:07:18.789Z,7.50
2022-11-24T05:10:25.992Z,7.54
2022-11-24T05:13:15.053Z,7.42
2022-11-24T05:16:03.385Z,7.37
2022-11-24T05:18:53.090Z,7.13
2022-11-24T05:21:42.128Z,7.23
2022-11-24T05:24:30.656Z,7.20
2022-11-24T05:27:18.960Z,7.28
2022-11-24T05:30:08.849Z,7.21
2022-11-24T05:32:57.375Z,7.21
2022-11-24T05:35:47.860Z,6.98
2022-11-24T05:38:36.836Z,7.07
2022-11-24T05:41:25.116Z,7.02
2022-11-24T05:44:13.444Z,6.96
2022-11-24T05:47:01.780Z,6.78
2022-11-24T05:49:50.069Z,6.75
2022-11-24T05:52:40.210Z,6.78
2022-11-24T05:55:28.479Z,6.92
2022-11-24T05:58:16.687Z,6.93
2022-11-24T06:01:07.390Z,6.91
2022-11-24T06:03:55.658Z,7.03
2022-11-24T06:06:43.942Z,6.89
2022-11-24T06:09:33.692Z,6.96
2022-11-24T06:12:03.705Z,7.05
2022-11-24T06:14:31.786Z,7.09
2022-11-24T06:16:59.976Z,7.07
2022-11-24T06:19:27.964Z,7.06
2022-11-24T06:21:56.091Z,6.94
2022-11-24T06:24:24.212Z,6.95
2022-11-24T06:26:53.844Z,6.97
2022-11-24T06:29:21.744Z,7.02
2022-11-24T06:31:50.191Z,7.07
2022-11-24T06:34:18.181Z,7.08
2022-11-24T06:36:46.110Z,7.01
2022-11-24T06:39:14.064Z,7.11
2022-11-24T06:41:42.012Z,6.91
2022-11-24T06:44:11.504Z,6.82
2022-11-24T06:46:39.753Z,6.92
2022-11-24T06:49:10.526Z,6.92
2022-11-24T06:51:58.782Z,6.87
2022-11-24T06:54:27.118Z,6.87
2022-11-24T06:56:58.375Z,6.85
2022-11-24T06:59:27.805Z,6.51
2022-11-24T07:01:55.846Z,6.40
2022-11-24T07:04:24.012Z,6.31
2022-11-24T07:06:51.969Z,6.43
2022-11-24T07:09:38.534Z,6.69
2022-11-24T07:12:08.288Z,7.02
2022-11-24T07:14:37.806Z,7.21
2022-11-24T07:17:05.902Z,7.32
2022-11-24T07:19:33.919Z,7.08
2022-11-24T07:22:01.913Z,7.20
2022-11-24T07:24:29.817Z,7.28
2022-11-24T07:26:57.729Z,7.00
2022-11-24T07:29:25.774Z,7.01
2022-11-24T07:31:55.198Z,7.16
2022-11-24T07:34:23.277Z,7.26
2022-11-24T07:36:51.365Z,7.36
2022-11-24T07:39:19.274Z,7.51
2022-11-24T07:41:47.221Z,7.61
2022-11-24T07:44:15.697Z,7.42
2022-11-24T07:46:43.630Z,7.55
2022-11-24T07:49:12.892Z,7.71
2022-11-24T07:51:48.227Z,7.91
2022-11-24T07:54:16.123Z,8.04
2022-11-24T07:56:45.128Z,8.19
2022-11-24T07:59:33.419Z,8.31
2022-11-24T08:02:14.331Z,8.31
2022-11-24T08:04:43.660Z,8.22
2022-11-24T08:07:11.574Z,8.26
2022-11-24T08:09:41.362Z,8.26
2022-11-24T08:12:09.302Z,8.10
2022-11-24T08:14:55.730Z,8.31
2022-11-24T08:17:43.904Z,8.33
2022-11-24T08:20:14.168Z,8.43
2022-11-24T08:22:42.529Z,8.14
2022-11-24T08:25:11.030Z,8.18
2022-11-24T08:27:40.229Z,8.26
2022-11-24T08:30:09.657Z,8.47
2022-11-24T08:32:56.383Z,8.37
2022-11-24T08:35:46.111Z,8.38
2022-11-24T08:38:34.338Z,8.47
2022-11-24T08:41:22.604Z,8.72
2022-11-24T08:44:11.290Z,8.88
2022-11-24T08:46:59.525Z,9.02
2022-11-24T08:49:47.764Z,9.04
2022-11-24T08:52:17.926Z,9.18
2022-11-24T08:54:45.949Z,9.24
2022-11-24T08:57:18.716Z,9.45
2022-11-24T08:59:49.761Z,9.70
2022-11-24T09:02:18.165Z,9.52
2022-11-24T09:04:48.512Z,9.42
2022-11-24T09:07:20.782Z,9.38
2022-11-24T09:10:08.271Z,9.30
2022-11-24T09:12:36.225Z,9.24
2022-11-24T09:15:04.202Z,9.02
2022-11-24T09:17:32.899Z,8.89
2022-11-24T09:20:00.807Z,9.06
2022-11-24T09:22:31.459Z,9.33
2022-11-24T09:24:59.451Z,9.44
2022-11-24T09:27:27.986Z,9.49
2022-11-24T09:29:55.968Z,9.48
2022-11-24T09:32:24.361Z,9.55
2022-11-24T09:34:52.692Z,9.66
2022-11-24T09:37:20.730Z,10.04
2022-11-24T09:39:51.365Z,10.34
2022-11-24T09:42:31.552Z,10.70
2022-11-24T09:45:35.396Z,10.84
2022-11-24T09:48:13.632Z,10.83
2022-11-24T09:50:41.728Z,10.62
2022-11-24T09:53:17.296Z,10.91
2022-11-24T09:55:50.696Z,11.09
2022-11-24T09:58:32.403Z,11.15
2022-11-24T10:01:00.850Z,11.29
2022-11-24T10:03:34.016Z,11.57
2022-11-24T10:06:06.449Z,11.64
2022-11-24T10:08:49.685Z,11.07
2022-11-24T10:11:31.040Z,10.46
2022-11-24T10:14:26.299Z,10.82
2022-11-24T10:16:58.700Z,11.31
2022-11-24T10:19:40.256Z,11.38
2022-11-24T10:22:30.809Z,11.66
2022-11-24T10:25:22.363Z,11.75
2022-11-24T10:28:00.184Z,11.85
2022-11-24T10:30:28.789Z,11.78
2022-11-24T10:32:59.747Z,11.99
2022-11-24T10:35:32.382Z,12.13
2022-11-24T10:38:08.766Z,12.39
2022-11-24T10:40:57.728Z,12.64
2022-11-24T10:43:29.462Z,12.86
2022-11-24T10:46:01.988Z,13.10
2022-11-24T10:48:38.421Z,13.23
2022-11-24T10:51:34.134Z,13.35
2022-11-24T10:54:08.021Z,13.48
2022-11-24T10:56:40.876Z,13.49
2022-11-24T10:59:34.007Z,13.51
2022-11-24T11:02:02.673Z,13.68
2022-11-24T11:04:33.673Z,13.74
2022-11-24T11:07:17.557Z,13.33
2022-11-24T11:09:45.583Z,13.27
2022-11-24T11:12:42.909Z,13.06
2022-11-24T11:15:32.208Z,12.56
2022-11-24T11:18:01.651Z,12.93
2022-11-24T11:20:31.351Z,13.26
2022-11-24T11:23:03.328Z,13.58
2022-11-24T11:25:34.323Z,13.85
2022-11-24T11:28:27.798Z,13.97
2022-11-24T11:31:20.530Z,14.06
2022-11-24T11:34:08.259Z,13.97
2022-11-24T11:36:43.619Z,14.11
2022-11-24T11:39:24.164Z,14.30
2022-11-24T11:41:56.825Z,14.40
2022-11-24T11:44:35.826Z,14.62
2022-11-24T11:47:15.545Z,14.68
2022-11-24T11:49:43.575Z,14.55
2022-11-24T11:52:37.673Z,14.61
2022-11-24T11:55:33.060Z,14.58
2022-11-24T11:58:16.089Z,14.59
2022-11-24T12:00:49.812Z,14.65
2022-11-24T12:03:55.105Z,14.82
2022-11-24T12:06:38.350Z,14.75
2022-11-24T12:09:20.736Z,14.79
2022-11-24T12:12:04.034Z,14.98
2022-11-24T12:14:45.300Z,15.23
2022-11-24T12:17:22.944Z,15.35
2022-11-24T12:20:08.825Z,15.51
2022-11-24T12:22:45.530Z,15.67
2022-11-24T12:25:27.095Z,15.72
2022-11-24T12:28:07.122Z,15.86
2022-11-24T12:30:44.707Z,15.88
2022-11-24T12:33:37.139Z,15.82
2022-11-24T12:36:14.827Z,15.79
2022-11-24T12:38:56.036Z,15.64
2022-11-24T12:41:42.150Z,15.52
2022-11-24T12:44:23.152Z,15.53
2022-11-24T12:47:00.626Z,15.53
2022-11-24T12:49:35.535Z,15.55
2022-11-24T12:52:13.709Z,15.63
2022-11-24T12:54:42.938Z,15.78
2022-11-24T12:57:17.779Z,15.83
2022-11-24T12:59:55.914Z,15.90
2022-11-24T13:02:38.089Z,15.99
2022-11-24T13:05:20.844Z,15.99
2022-11-24T13:07:56.133Z,15.97
2022-11-24T13:13:31.405Z,15.87
2022-11-24T13:16:35.223Z,15.70
2022-11-24T13:19:08.618Z,15.63
2022-11-24T13:21:58.979Z,15.54
2022-11-24T13:24:30.927Z,15.37
2022-11-24T13:27:29.243Z,15.10
2022-11-24T13:29:57.434Z,14.94
2022-11-24T13:33:01.767Z,14.38
2022-11-24T13:35:30.601Z,14.18
2022-11-24T13:37:58.929Z,14.26
2022-11-24T13:41:06.344Z,14.16
2022-11-24T13:43:33.083Z,13.97
2022-11-24T13:46:03.843Z,14.04
2022-11-24T13:48:53.809Z,14.12
2022-11-24T13:51:25.648Z,14.08
2022-11-24T13:53:56.193Z,13.99
2022-11-24T13:56:29.506Z,13.73
2022-11-24T13:58:59.706Z,13.72
2022-11-24T14:01:29.522Z,13.40
2022-11-24T14:04:29.862Z,13.50
2022-11-24T14:07:07.744Z,13.69
2022-11-24T14:09:41.835Z,13.79
2022-11-24T14:12:15.527Z,13.68
2022-11-24T14:14:45.595Z,13.82
2022-11-24T14:17:19.751Z,13.91
2022-11-24T14:19:49.722Z,13.69
2022-11-24T14:22:20.947Z,13.82
2022-11-24T14:24:54.777Z,13.85
2022-11-24T14:27:29.939Z,13.90
2022-11-24T14:29:59.733Z,13.91
2022-11-24T14:32:30.766Z,13.92
2022-11-24T14:34:58.804Z,13.91
2022-11-24T14:37:26.803Z,13.61
2022-11-24T14:39:54.819Z,13.70
2022-11-24T14:42:26.097Z,13.65
2022-11-24T14:44:56.656Z,13.70
2022-11-24T14:47:31.373Z,13.72
2022-11-24T14:50:11.243Z,13.78
2022-11-24T14:52:46.121Z,13.68
2022-11-24T14:55:27.783Z,13.38
2022-11-24T14:57:57.892Z,13.29
2022-11-24T15:00:31.605Z,13.23
2022-11-24T15:03:16.553Z,13.24
2022-11-24T15:06:03.139Z,12.92
2022-11-24T15:08:39.498Z,12.92
2022-11-24T15:11:08.647Z,12.96
2022-11-24T15:13:39.229Z,12.65
2022-11-24T15:16:16.354Z,12.56
2022-11-24T15:18:47.300Z,12.64
2022-11-24T15:21:19.482Z,12.66
2022-11-24T15:24:15.647Z,12.26
2022-11-24T15:26:47.142Z,12.49
2022-11-24T15:29:16.517Z,12.54
2022-11-24T15:31:49.385Z,12.41
2022-11-24T15:34:20.559Z,12.38
2022-11-24T15:36:48.634Z,12.52
2022-11-24T15:39:17.503Z,12.45
2022-11-24T15:41:45.518Z,12.60
2022-11-24T15:44:13.437Z,12.53
2022-11-24T15:46:43.086Z,12.44
2022-11-24T15:49:11.321Z,12.53
2022-11-24T15:51:43.707Z,12.56
2022-11-24T15:54:15.852Z,12.67
2022-11-24T15:56:47.093Z,12.62
2022-11-24T15:59:20.196Z,12.63
2022-11-24T16:01:51.288Z,12.65
2022-11-24T16:04:19.299Z,12.61
2022-11-24T16:06:48.027Z,12.60
2022-11-24T16:09:17.349Z,12.58
2022-11-24T16:11:45.716Z,12.58
2022-11-24T16:14:13.760Z,12.59
2022-11-24T16:16:42.014Z,12.61
2022-11-24T16:19:12.308Z,12.58
2022-11-24T16:21:40.289Z,12.41
2022-11-24T16:24:08.948Z,12.39
2022-11-24T16:26:36.846Z,12.41
2022-11-24T16:29:04.763Z,12.42
2022-11-24T16:31:36.632Z,12.42
2022-11-24T16:34:05.815Z,12.46
2022-11-24T16:36:35.251Z,12.39
2022-11-24T16:39:03.211Z,12.41
2022-11-24T16:41:31.460Z,12.40
2022-11-24T16:44:20.348Z,12.39
2022-11-24T16:47:08.877Z,12.32
2022-11-24T16:49:57.211Z,12.29
2022-11-24T16:52:36.533Z,12.45
2022-11-24T16:55:08.393Z,12.49
2022-11-24T16:57:37.131Z,12.33
2022-11-24T17:00:06.054Z,12.33
2022-11-24T17:02:34.391Z,12.42
2022-11-24T17:05:02.456Z,12.52
2022-11-24T17:07:30.719Z,12.56
2022-11-24T17:10:00.705Z,12.62
2022-11-24T17:12:29.021Z,12.66
2022-11-24T17:15:30.351Z,12.71
2022-11-24T17:18:16.071Z,12.76
2022-11-24T17:20:36.135Z,12.39
2022-11-24T17:23:04.166Z,12.22
2022-11-24T17:25:34.633Z,12.32
2022-11-24T17:28:02.568Z,12.40
2022-11-24T17:30:33.012Z,12.22
2022-11-24T17:33:00.922Z,12.07
2022-11-24T17:35:28.818Z,12.13
2022-11-24T17:37:58.297Z,12.10
2022-11-24T17:40:28.830Z,12.06
2022-11-24T17:43:00.913Z,11.80
2022-11-24T17:45:29.803Z,11.86
2022-11-24T17:47:58.068Z,11.80
2022-11-24T17:50:26.674Z,11.71
2022-11-24T17:52:54.903Z,11.77
2022-11-24T17:55:23.102Z,11.74
2022-11-24T17:57:51.629Z,11.50
2022-11-24T18:00:21.573Z,11.40
2022-11-24T18:02:49.599Z,11.33
2022-11-24T18:05:17.679Z,10.87
2022-11-24T18:07:45.627Z,10.88
2022-11-24T18:10:13.688Z,10.52
2022-11-24T18:12:41.630Z,10.40
2022-11-24T18:15:10.312Z,10.57
2022-11-24T18:17:39.835Z,10.29
2022-11-24T18:20:09.267Z,10.41
2022-11-24T18:23:03.976Z,10.60
2022-11-24T18:25:25.290Z,10.75
2022-11-24T18:27:53.350Z,10.87
2022-11-24T18:30:21.729Z,10.97
2022-11-24T18:32:51.164Z,10.76
2022-11-24T18:35:19.507Z,10.85
2022-11-24T18:37:47.452Z,10.65
2022-11-24T18:40:15.737Z,10.59
2022-11-24T18:42:43.793Z,10.72
2022-11-24T18:45:12.687Z,10.91
2022-11-24T18:47:40.811Z,10.87
2022-11-24T18:50:11.232Z,10.91
2022-11-24T18:52:39.414Z,10.98
2022-11-24T18:55:08.150Z,10.82
2022-11-24T18:57:36.139Z,10.78
2022-11-24T19:00:08.627Z,10.77
2022-11-24T19:02:36.645Z,10.73
2022-11-24T19:05:07.057Z,10.84
2022-11-24T19:07:36.436Z,10.84
2022-11-24T19:10:04.657Z,10.92
2022-11-24T19:12:42.357Z,10.94
2022-11-24T19:15:11.014Z,11.07
2022-11-24T19:17:39.330Z,11.00
2022-11-24T19:20:08.614Z,11.04
2022-11-24T19:22:37.956Z,11.09
2022-11-24T19:25:06.952Z,11.18
2022-11-24T19:27:35.174Z,11.09
2022-11-24T19:30:03.081Z,11.02
2022-11-24T19:32:32.657Z,11.01
2022-11-24T19:35:00.716Z,11.08
2022-11-24T19:37:29.442Z,11.14
2022-11-24T19:40:01.238Z,11.18
2022-11-24T19:42:29.165Z,10.74
2022-11-24T19:44:57.681Z,10.85
2022-11-24T19:47:45.963Z,10.99
2022-11-24T19:50:34.291Z,10.53
2022-11-24T19:53:22.550Z,10.74
2022-11-24T19:56:14.793Z,10.85
2022-11-24T19:59:02.155Z,11.03
2022-11-24T20:01:50.665Z,10.88
2022-11-24T20:04:41.376Z,10.87
2022-11-24T20:07:29.992Z,10.99
2022-11-24T20:10:06.028Z,10.93
2022-11-24T20:12:36.986Z,10.68
2022-11-24T20:15:05.646Z,10.60
2022-11-24T20:17:33.671Z,10.46
2022-11-24T20:20:01.626Z,10.50
2022-11-24T20:22:49.927Z,10.34
2022-11-24T20:25:39.178Z,10.07
2022-11-24T20:28:28.791Z,9.95
2022-11-24T20:31:19.351Z,9.79
2022-11-24T20:34:08.587Z,9.76
2022-11-24T20:36:57.012Z,9.83
2022-11-24T20:39:45.464Z,9.88
2022-11-24T20:42:35.747Z,9.46
2022-11-24T20:45:25.444Z,9.59
2022-11-24T20:48:13.893Z,9.31
2022-11-24T20:51:06.398Z,9.43
2022-11-24T20:53:57.112Z,9.45
2022-11-24T20:56:46.542Z,9.39
2022-11-24T20:59:35.870Z,9.54
2022-11-24T21:02:06.853Z,9.40
2022-11-24T21:04:36.430Z,9.45
2022-11-24T21:07:04.702Z,9.29
2022-11-24T21:09:35.868Z,9.22
2022-11-24T21:12:07.204Z,9.32
2022-11-24T21:14:38.392Z,9.36
2022-11-24T21:17:08.091Z,9.31
2022-11-24T21:19:36.288Z,9.24
2022-11-24T21:22:22.747Z,9.27
2022-11-24T21:25:10.995Z,9.23
2022-11-24T21:27:59.440Z,9.38
2022-11-24T21:30:47.787Z,9.40
2022-11-24T21:33:20.768Z,9.45
2022-11-24T21:35:48.712Z,9.44
2022-11-24T21:38:19.503Z,9.44
2022-11-24T21:40:50.199Z,9.44
2022-11-24T21:43:21.396Z,9.44
2022-11-24T21:45:50.592Z,9.38
2022-11-24T21:48:20.056Z,9.45
2022-11-24T21:50:47.991Z,9.45
2022-11-24T21:53:18.277Z,9.46
2022-11-24T21:55:55.367Z,9.38
2022-11-24T21:58:23.559Z,9.42
2022-11-24T22:00:51.809Z,9.36
2022-11-24T22:03:22.136Z,9.21
2022-11-24T22:05:55.394Z,9.20
2022-11-24T22:08:23.943Z,9.25
2022-11-24T22:10:52.626Z,9.27
2022-11-24T22:13:21.215Z,9.22
2022-11-24T22:15:49.170Z,9.04
2022-11-24T22:18:17.632Z,9.04
2022-11-24T22:20:55.366Z,8.94
2022-11-24T22:23:23.986Z,8.92
2022-11-24T22:26:06.294Z,8.92
2022-11-24T22:28:35.640Z,9.06
2022-11-24T22:31:06.964Z,9.16
2022-11-24T22:33:35.554Z,9.06
2022-11-24T22:36:11.709Z,8.88
2022-11-24T22:38:40.162Z,8.94
2022-11-24T22:41:10.663Z,8.73
2022-11-24T22:43:40.073Z,8.69
2022-11-24T22:46:11.022Z,8.62
2022-11-24T22:48:39.795Z,8.71
2022-11-24T22:51:11.507Z,8.48
2022-11-24T22:53:39.982Z,8.54
2022-11-24T22:56:10.576Z,8.65
2022-11-24T22:58:39.319Z,8.68
2022-11-24T23:01:08.250Z,8.65
2022-11-24T23:03:37.166Z,8.70
2022-11-24T23:06:08.428Z,8.56
2022-11-24T23:08:38.115Z,8.42
2022-11-24T23:11:08.908Z,8.29
2022-11-24T23:13:37.493Z,8.32
2022-11-24T23:16:09.354Z,8.38
2022-11-24T23:18:40.731Z,8.33
2022-11-24T23:21:11.824Z,7.83
2022-11-24T23:23:44.433Z,7.83
2022-11-24T23:26:14.387Z,7.94
2022-11-24T23:28:43.186Z,8.08
2022-11-24T23:31:13.884Z,8.14
2022-11-24T23:33:42.606Z,8.24
2022-11-24T23:36:13.065Z,8.33
2022-11-24T23:38:41.617Z,8.45
2022-11-24T23:41:15.216Z,8.53
2022-11-24T23:43:44.307Z,8.44
2022-11-24T23:46:16.465Z,8.51
2022-11-24T23:48:45.309Z,8.45
2022-11-24T23:51:16.452Z,8.15
2022-11-24T23:53:46.844Z,8.22
2022-11-24T23:56:36.586Z,8.26
2022-11-24T23:59:24.996Z,8.34
